createdAt,value
2018-12-07T00:00:26.383Z,110.47
2018-12-07T00:02:56.453Z,109.67
2018-12-07T00:05:26.373Z,109.70
2018-12-07T00:07:57.103Z,108.03
2018-12-07T00:10:27.141Z,111.87
2018-12-07T00:12:57.107Z,104.60
2018-12-07T00:15:27.199Z,108.23
2018-12-07T00:17:57.169Z,121.43
2018-12-07T00:20:27.330Z,126.03
2018-12-07T00:22:57.345Z,117.57
2018-12-07T00:25:27.369Z,127.43
2018-12-07T00:27:57.349Z,128.00
2018-12-07T00:30:27.422Z,137.43
2018-12-07T00:32:57.388Z,139.43
2018-12-07T00:35:27.429Z,126.80
2018-12-07T00:37:57.322Z,128.50
2018-12-07T00:40:27.298Z,133.47
2018-12-07T00:42:57.368Z,138.40
2018-12-07T00:45:27.253Z,141.33
2018-12-07T00:47:57.608Z,148.70
2018-12-07T00:50:27.519Z,136.67
2018-12-07T00:52:57.529Z,142.70
2018-12-07T00:55:37.379Z,149.27
2018-12-07T00:58:07.398Z,157.03
2018-12-07T01:00:37.627Z,155.90
2018-12-07T01:03:07.527Z,152.20
2018-12-07T01:05:37.567Z,149.53
2018-12-07T01:08:07.461Z,155.77
2018-12-07T01:10:37.522Z,150.10
2018-12-07T01:13:07.467Z,146.43
2018-12-07T01:15:37.433Z,148.60
2018-12-07T01:18:07.618Z,139.03
2018-12-07T01:20:37.652Z,152.90
2018-12-07T01:23:07.657Z,138.43
2018-12-07T01:25:37.659Z,140.63
2018-12-07T01:28:07.711Z,139.77
2018-12-07T01:30:37.581Z,139.13
2018-12-07T01:33:07.579Z,127.33
2018-12-07T01:35:37.522Z,129.97
2018-12-07T01:38:07.538Z,126.00
2018-12-07T01:40:37.461Z,124.33
2018-12-07T01:43:07.401Z,115.03
2018-12-07T01:45:37.366Z,125.07
2018-12-07T01:48:07.407Z,125.13
2018-12-07T01:50:37.298Z,115.80
2018-12-07T01:53:07.321Z,129.53
2018-12-07T01:55:37.341Z,128.03
2018-12-07T01:58:07.333Z,126.43
2018-12-07T02:00:37.468Z,131.67
2018-12-07T02:03:07.468Z,130.97
2018-12-07T02:05:37.392Z,124.80
2018-12-07T02:08:07.347Z,111.23
2018-12-07T02:10:37.215Z,98.13
2018-12-07T02:13:07.097Z,104.43
2018-12-07T02:15:37.047Z,92.00
2018-12-07T02:18:06.993Z,92.40
2018-12-07T02:20:36.978Z,93.57
2018-12-07T02:23:07.141Z,85.23
2018-12-07T02:25:37.181Z,78.10
2018-12-07T02:28:07.216Z,79.30
2018-12-07T02:30:37.146Z,68.77
2018-12-07T02:33:07.202Z,78.43
2018-12-07T02:35:37.270Z,84.70
2018-12-07T02:38:07.289Z,76.83
2018-12-07T02:40:37.192Z,77.97
2018-12-07T02:43:07.463Z,87.27
2018-12-07T02:45:37.532Z,81.13
2018-12-07T02:48:07.507Z,84.90
2018-12-07T02:50:37.452Z,88.80
2018-12-07T02:53:07.368Z,81.43
2018-12-07T02:55:37.486Z,96.30
2018-12-07T02:58:08.418Z,89.87
2018-12-07T03:00:38.666Z,86.30
2018-12-07T03:03:09.281Z,90.37
2018-12-07T03:05:39.467Z,89.67
2018-12-07T03:08:09.611Z,85.53
2018-12-07T03:10:39.744Z,82.10
2018-12-07T03:13:09.751Z,81.97
2018-12-07T03:15:40.040Z,71.77
2018-12-07T03:21:03.141Z,59.00
2018-12-07T03:23:33.113Z,55.03
2018-12-07T03:26:03.082Z,41.83
2018-12-07T03:28:33.185Z,41.70
2018-12-07T03:31:03.083Z,42.37
2018-12-07T03:33:33.088Z,38.43
2018-12-07T03:36:03.022Z,36.97
2018-12-07T03:38:32.993Z,38.33
2018-12-07T03:41:02.911Z,33.67
2018-12-07T03:43:32.823Z,42.87
2018-12-07T03:46:02.731Z,31.23
2018-12-07T03:48:32.807Z,33.47
2018-12-07T03:51:02.795Z,38.90
2018-12-07T03:53:32.726Z,35.97
2018-12-07T03:56:02.791Z,34.17
2018-12-07T03:58:32.753Z,33.80
2018-12-07T04:01:02.831Z,27.03
2018-12-07T04:03:33.031Z,32.37
2018-12-07T04:06:03.121Z,30.27
2018-12-07T04:08:33.042Z,26.53
2018-12-07T04:11:03.211Z,28.33
2018-12-07T04:13:33.269Z,24.30
2018-12-07T04:16:03.370Z,26.07
2018-12-07T04:18:33.391Z,23.87
2018-12-07T04:21:03.481Z,23.60
2018-12-07T04:23:33.381Z,28.73
2018-12-07T04:26:03.273Z,27.60
2018-12-07T04:28:33.245Z,26.70
2018-12-07T04:31:03.260Z,30.50
2018-12-07T04:33:33.218Z,30.33
2018-12-07T04:36:07.374Z,32.00
2018-12-07T04:38:35.059Z,31.00
2018-12-07T04:41:04.961Z,31.37
2018-12-07T04:43:34.988Z,29.13
2018-12-07T04:46:05.097Z,28.20
2018-12-07T04:48:35.118Z,29.17
2018-12-07T04:51:05.114Z,30.50
2018-12-07T04:53:35.241Z,30.60
2018-12-07T04:56:05.354Z,26.23
2018-12-07T04:58:35.312Z,29.03
2018-12-07T05:01:05.298Z,28.63
2018-12-07T05:03:35.312Z,25.43
2018-12-07T05:06:05.331Z,23.97
2018-12-07T05:08:41.873Z,23.17
2018-12-07T05:11:11.809Z,23.83
2018-12-07T05:13:41.795Z,23.67
2018-12-07T05:16:11.797Z,22.93
2018-12-07T05:18:41.898Z,24.30
2018-12-07T05:21:11.883Z,21.23
2018-12-07T05:23:41.833Z,26.53
2018-12-07T05:26:11.791Z,29.63
2018-12-07T05:28:41.882Z,25.70
2018-12-07T05:31:11.933Z,29.97
2018-12-07T05:33:42.183Z,32.53
2018-12-07T05:36:12.165Z,33.20
2018-12-07T05:38:42.181Z,30.87
2018-12-07T05:41:12.214Z,31.20
2018-12-07T05:46:35.934Z,32.83
2018-12-07T05:49:05.993Z,33.43
2018-12-07T05:51:36.019Z,30.10
2018-12-07T05:54:12.562Z,30.03
2018-12-07T05:56:42.483Z,31.50
2018-12-07T05:59:12.488Z,31.07
2018-12-07T06:01:42.712Z,31.30
2018-12-07T06:04:12.748Z,30.60
2018-12-07T06:06:42.717Z,32.07
2018-12-07T06:09:12.762Z,31.27
2018-12-07T06:11:42.852Z,35.93
2018-12-07T06:14:12.803Z,34.17
2018-12-07T06:16:43.122Z,33.63
2018-12-07T06:19:13.137Z,33.70
2018-12-07T06:21:43.072Z,38.67
2018-12-07T06:24:13.123Z,33.67
2018-12-07T06:26:43.090Z,36.43
2018-12-07T06:29:13.718Z,36.50
2018-12-07T06:31:44.041Z,34.43
2018-12-07T06:34:14.228Z,31.10
2018-12-07T06:36:44.272Z,32.20
2018-12-07T06:39:14.691Z,38.47
2018-12-07T06:41:44.718Z,35.03
2018-12-07T06:44:14.691Z,36.93
2018-12-07T06:46:44.739Z,38.23
2018-12-07T06:49:15.273Z,33.57
2018-12-07T06:51:45.486Z,33.00
2018-12-07T06:54:15.584Z,34.07
2018-12-07T06:56:45.620Z,32.13
2018-12-07T06:59:15.649Z,34.40
2018-12-07T07:01:46.598Z,33.50
2018-12-07T07:04:16.693Z,30.47
2018-12-07T07:06:46.660Z,30.57
2018-12-07T07:09:16.623Z,31.07
2018-12-07T07:11:46.600Z,28.00
2018-12-07T07:14:16.529Z,28.73
2018-12-07T07:16:46.570Z,27.70
2018-12-07T07:19:16.508Z,28.77
2018-12-07T07:21:46.707Z,35.47
2018-12-07T07:24:16.611Z,32.20
2018-12-07T07:26:46.617Z,32.37
2018-12-07T07:29:16.691Z,34.27
2018-12-07T07:31:46.767Z,35.77
2018-12-07T07:34:16.631Z,37.50
2018-12-07T07:36:46.595Z,40.03
2018-12-07T07:39:16.785Z,39.10
2018-12-07T07:41:46.912Z,36.63
2018-12-07T07:44:16.798Z,35.20
2018-12-07T07:46:47.022Z,34.03
2018-12-07T07:49:17.081Z,34.43
2018-12-07T07:51:47.595Z,31.00
2018-12-07T07:54:24.166Z,31.83
2018-12-07T07:56:54.385Z,28.47
2018-12-07T07:59:24.783Z,29.93
2018-12-07T08:01:54.896Z,33.93
2018-12-07T08:04:25.381Z,31.20
2018-12-07T08:06:55.375Z,38.63
2018-12-07T08:09:25.688Z,36.97
2018-12-07T08:11:55.528Z,37.60
2018-12-07T08:14:25.589Z,39.10
2018-12-07T08:16:55.649Z,34.67
2018-12-07T08:19:25.868Z,35.77
2018-12-07T08:21:56.116Z,33.37
2018-12-07T08:24:26.144Z,35.47
2018-12-07T08:26:56.000Z,28.93
2018-12-07T08:29:26.275Z,35.80
2018-12-07T08:31:56.240Z,33.40
2018-12-07T08:34:26.251Z,34.63
2018-12-07T08:36:56.374Z,38.03
2018-12-07T08:39:26.421Z,37.37
2018-12-07T08:41:56.499Z,38.80
2018-12-07T08:44:26.600Z,33.90
2018-12-07T08:46:56.599Z,36.53
2018-12-07T08:49:30.519Z,41.20
2018-12-07T08:52:00.559Z,43.78
2018-12-07T08:54:30.485Z,40.27
2018-12-07T08:57:00.446Z,44.93
2018-12-07T08:59:30.385Z,41.53
2018-12-07T09:02:00.292Z,39.20
2018-12-07T09:04:30.095Z,39.13
2018-12-07T09:07:00.040Z,37.87
2018-12-07T09:09:29.869Z,36.10
2018-12-07T09:11:59.796Z,34.03
2018-12-07T09:14:29.683Z,33.47
2018-12-07T09:16:59.493Z,37.27
2018-12-07T09:19:29.507Z,34.43
2018-12-07T09:21:59.337Z,34.60
2018-12-07T09:24:30.160Z,33.70
2018-12-07T09:26:59.960Z,28.97
2018-12-07T09:29:29.873Z,30.27
2018-12-07T09:31:59.729Z,31.97
2018-12-07T09:34:29.693Z,31.30
2018-12-07T09:36:59.560Z,31.87
2018-12-07T09:39:29.449Z,30.33
2018-12-07T09:41:59.340Z,36.10
2018-12-07T09:44:29.184Z,39.47
2018-12-07T09:46:59.155Z,35.80
2018-12-07T09:49:29.072Z,34.73
2018-12-07T09:51:59.096Z,41.70
2018-12-07T09:54:29.286Z,35.80
2018-12-07T09:56:59.420Z,37.37
2018-12-07T09:59:29.298Z,34.13
2018-12-07T10:01:59.141Z,44.87
2018-12-07T10:04:29.165Z,43.43
2018-12-07T10:06:59.010Z,41.10
2018-12-07T10:09:28.993Z,36.50
2018-12-07T10:11:59.006Z,38.77
2018-12-07T10:14:29.020Z,40.13
2018-12-07T10:16:58.854Z,43.90
2018-12-07T10:19:28.744Z,53.53
2018-12-07T10:21:58.626Z,45.83
2018-12-07T10:24:28.670Z,44.57
2018-12-07T10:27:06.880Z,46.23
2018-12-07T10:29:36.895Z,45.23
2018-12-07T10:32:06.810Z,41.80
2018-12-07T10:34:36.723Z,37.93
2018-12-07T10:37:06.569Z,41.67
2018-12-07T10:39:36.472Z,37.13
2018-12-07T10:42:06.456Z,37.77
2018-12-07T10:44:36.476Z,36.50
2018-12-07T10:47:06.313Z,33.80
2018-12-07T10:49:36.257Z,33.17
2018-12-07T10:52:06.101Z,33.97
2018-12-07T10:54:36.130Z,37.43
2018-12-07T10:57:05.974Z,39.07
2018-12-07T10:59:35.821Z,32.90
2018-12-07T11:02:09.647Z,39.13
2018-12-07T11:04:43.469Z,36.23
2018-12-07T11:07:17.256Z,35.63
2018-12-07T11:09:51.092Z,33.63
2018-12-07T11:12:24.863Z,32.80
2018-12-07T11:14:58.729Z,30.30
2018-12-07T11:17:32.531Z,31.43
2018-12-07T11:20:06.589Z,34.87
2018-12-07T11:22:40.346Z,26.33
2018-12-07T11:25:14.209Z,27.83
2018-12-07T11:27:48.159Z,31.33
2018-12-07T11:30:21.990Z,26.10
2018-12-07T11:32:55.798Z,24.63
2018-12-07T11:35:29.880Z,31.87
2018-12-07T11:37:59.781Z,35.33
2018-12-07T11:40:29.858Z,31.27
2018-12-07T11:42:59.977Z,40.93
2018-12-07T11:45:29.872Z,48.63
2018-12-07T11:47:59.719Z,41.93
2018-12-07T11:50:29.619Z,40.57
2018-12-07T11:53:00.252Z,37.70
2018-12-07T11:55:30.103Z,31.67
2018-12-07T11:58:00.067Z,36.67
2018-12-07T12:00:29.987Z,38.60
2018-12-07T12:02:59.898Z,37.87
2018-12-07T12:05:29.906Z,37.13
2018-12-07T12:07:59.754Z,41.77
2018-12-07T12:10:29.666Z,47.30
2018-12-07T12:12:59.646Z,35.13
2018-12-07T12:15:29.665Z,40.03
2018-12-07T12:17:59.678Z,37.60
2018-12-07T12:20:29.591Z,35.07
2018-12-07T12:22:59.417Z,32.43
2018-12-07T12:25:29.316Z,37.10
2018-12-07T12:27:59.222Z,32.13
2018-12-07T12:30:29.247Z,32.43
2018-12-07T12:32:59.083Z,37.80
2018-12-07T12:35:29.313Z,31.47
2018-12-07T12:37:59.050Z,34.90
2018-12-07T12:40:29.000Z,33.43
2018-12-07T12:42:58.913Z,30.80
2018-12-07T12:45:28.803Z,36.10
2018-12-07T12:47:58.649Z,32.27
2018-12-07T12:50:32.527Z,34.00
2018-12-07T12:53:02.458Z,35.23
2018-12-07T12:55:32.533Z,32.83
2018-12-07T12:58:02.363Z,32.13
2018-12-07T13:00:32.211Z,31.97
2018-12-07T13:03:02.065Z,32.53
2018-12-07T13:05:32.021Z,27.60
2018-12-07T13:08:01.932Z,26.17
2018-12-07T13:10:31.882Z,28.93
2018-12-07T13:13:01.848Z,18.67
2018-12-07T13:15:31.690Z,18.27
2018-12-07T13:18:01.602Z,19.37
2018-12-07T13:20:31.411Z,18.77
2018-12-07T13:23:01.248Z,19.47
2018-12-07T13:25:31.235Z,18.37
2018-12-07T13:28:01.191Z,19.90
2018-12-07T13:30:31.163Z,20.37
2018-12-07T13:33:00.946Z,19.80
2018-12-07T13:35:31.298Z,18.57
2018-12-07T13:38:01.507Z,19.93
2018-12-07T13:40:31.703Z,19.63
2018-12-07T13:43:02.074Z,20.77
2018-12-07T13:45:31.993Z,20.57
2018-12-07T13:48:02.127Z,17.67
2018-12-07T13:50:36.219Z,17.63
2018-12-07T13:53:06.191Z,19.10
2018-12-07T13:55:36.068Z,18.07
2018-12-07T13:58:06.307Z,20.53
2018-12-07T14:00:36.475Z,17.93
2018-12-07T14:03:06.362Z,16.90
2018-12-07T14:05:36.437Z,21.17
2018-12-07T14:08:06.427Z,18.23
2018-12-07T14:10:37.005Z,19.87
2018-12-07T14:13:07.102Z,17.57
2018-12-07T14:15:36.918Z,19.47
2018-12-07T14:18:07.207Z,18.20
2018-12-07T14:20:37.362Z,14.83
2018-12-07T14:23:07.433Z,14.37
2018-12-07T14:25:37.722Z,15.87
2018-12-07T14:28:07.713Z,13.93
2018-12-07T14:30:37.624Z,25.70
2018-12-07T14:33:07.605Z,15.07
2018-12-07T14:35:38.013Z,15.03
2018-12-07T14:38:08.172Z,17.50
2018-12-07T14:40:38.015Z,14.67
2018-12-07T14:43:07.960Z,16.50
2018-12-07T14:45:38.322Z,16.80
2018-12-07T14:48:08.397Z,17.30
2018-12-07T14:50:38.587Z,14.43
2018-12-07T14:53:08.609Z,19.13
2018-12-07T14:55:38.824Z,15.97
2018-12-07T14:58:08.884Z,20.33
2018-12-07T15:00:38.884Z,19.90
2018-12-07T15:03:09.018Z,18.67
2018-12-07T15:05:39.048Z,16.67
2018-12-07T15:08:09.165Z,15.10
2018-12-07T15:10:39.044Z,15.73
2018-12-07T15:13:08.950Z,16.17
2018-12-07T15:15:39.134Z,18.60
2018-12-07T15:18:09.182Z,22.73
2018-12-07T15:20:39.106Z,21.63
2018-12-07T15:23:09.097Z,21.93
2018-12-07T15:25:39.124Z,23.63
2018-12-07T15:28:09.354Z,27.30
2018-12-07T15:30:39.775Z,25.03
2018-12-07T15:33:10.237Z,22.50
2018-12-07T15:35:40.794Z,25.53
2018-12-07T15:38:10.880Z,25.57
2018-12-07T15:40:41.233Z,29.80
2018-12-07T15:43:11.324Z,22.53
2018-12-07T15:45:41.416Z,27.17
2018-12-07T15:48:11.639Z,26.27
2018-12-07T15:50:41.807Z,22.70
2018-12-07T15:53:12.030Z,27.70
2018-12-07T15:55:41.913Z,24.40
2018-12-07T15:58:11.906Z,35.83
2018-12-07T16:00:42.101Z,35.90
2018-12-07T16:03:12.780Z,43.30
2018-12-07T16:05:43.238Z,41.93
2018-12-07T16:08:13.797Z,46.43
2018-12-07T16:10:49.064Z,53.63
2018-12-07T16:13:15.817Z,54.73
2018-12-07T16:15:45.824Z,47.77
2018-12-07T16:18:16.301Z,40.30
2018-12-07T16:20:49.621Z,42.17
2018-12-07T16:23:20.090Z,32.43
2018-12-07T16:25:50.061Z,29.50
2018-12-07T16:28:21.022Z,33.60
2018-12-07T16:30:51.108Z,26.30
2018-12-07T16:33:21.170Z,26.97
2018-12-07T16:35:51.347Z,26.20
2018-12-07T16:38:21.544Z,22.57
2018-12-07T16:40:51.688Z,29.43
2018-12-07T16:43:21.825Z,36.13
2018-12-07T16:45:52.093Z,42.60
2018-12-07T16:48:22.321Z,47.03
2018-12-07T16:50:53.556Z,61.97
2018-12-07T16:53:23.677Z,71.47
2018-12-07T16:55:53.906Z,96.83
2018-12-07T16:58:24.438Z,130.60
2018-12-07T17:00:54.597Z,242.90
2018-12-07T17:03:24.435Z,301.77
2018-12-07T17:05:54.768Z,225.40
2018-12-07T17:08:24.705Z,251.93
2018-12-07T17:10:54.626Z,248.30
2018-12-07T17:13:24.789Z,127.33
2018-12-07T17:15:54.852Z,112.27
2018-12-07T17:18:24.806Z,117.80
2018-12-07T17:20:54.763Z,113.97
2018-12-07T17:23:24.812Z,114.20
2018-12-07T17:25:55.057Z,108.80
2018-12-07T17:28:25.327Z,120.03
2018-12-07T17:30:55.565Z,111.50
2018-12-07T17:33:25.825Z,90.57
2018-12-07T17:35:55.672Z,93.43
2018-12-07T17:38:26.102Z,102.60
2018-12-07T17:40:56.091Z,108.97
2018-12-07T17:43:26.165Z,99.47
2018-12-07T17:45:56.095Z,114.87
2018-12-07T17:48:26.336Z,114.47
2018-12-07T17:50:57.564Z,106.43
2018-12-07T17:53:28.471Z,106.03
2018-12-07T17:55:58.561Z,100.37
2018-12-07T17:58:28.583Z,103.43
2018-12-07T18:00:58.560Z,106.97
2018-12-07T18:03:28.601Z,109.07
2018-12-07T18:05:58.429Z,101.57
2018-12-07T18:08:28.485Z,101.40
2018-12-07T18:10:58.433Z,97.97
2018-12-07T18:13:28.590Z,110.93
2018-12-07T18:15:58.662Z,96.57
2018-12-07T18:18:28.694Z,88.43
2018-12-07T18:20:59.009Z,84.60
2018-12-07T18:23:29.245Z,83.13
2018-12-07T18:25:59.513Z,73.87
2018-12-07T18:28:31.135Z,73.70
2018-12-07T18:31:01.315Z,67.20
2018-12-07T18:33:31.422Z,68.43
2018-12-07T18:36:01.569Z,63.43
2018-12-07T18:38:31.803Z,58.73
2018-12-07T18:41:04.781Z,54.50
2018-12-07T18:43:37.261Z,51.17
2018-12-07T18:46:07.609Z,49.13
2018-12-07T18:48:44.365Z,48.43
2018-12-07T18:51:15.045Z,44.63
2018-12-07T18:53:45.255Z,48.33
2018-12-07T18:56:18.808Z,46.93
2018-12-07T18:58:52.128Z,46.33
2018-12-07T19:01:25.517Z,43.53
2018-12-07T19:03:58.689Z,40.63
2018-12-07T19:06:28.642Z,41.43
2018-12-07T19:09:00.141Z,43.47
2018-12-07T19:11:30.195Z,39.17
2018-12-07T19:14:05.683Z,40.17
2018-12-07T19:16:36.386Z,39.07
2018-12-07T19:19:06.482Z,36.87
2018-12-07T19:21:36.609Z,36.77
2018-12-07T19:24:09.586Z,38.50
2018-12-07T19:26:40.376Z,39.57
2018-12-07T19:29:10.363Z,37.67
2018-12-07T19:31:40.576Z,36.53
2018-12-07T19:34:11.256Z,36.53
2018-12-07T19:36:42.383Z,37.77
2018-12-07T19:39:20.132Z,40.77
2018-12-07T19:41:50.110Z,36.20
2018-12-07T19:44:20.163Z,36.83
2018-12-07T19:46:57.545Z,35.80
2018-12-07T19:49:29.214Z,35.70
2018-12-07T19:51:59.883Z,33.23
2018-12-07T19:54:30.062Z,34.93
2018-12-07T19:57:03.520Z,31.37
2018-12-07T19:59:39.627Z,28.83
2018-12-07T20:02:11.051Z,31.53
2018-12-07T20:04:42.469Z,30.03
2018-12-07T20:07:12.488Z,34.73
2018-12-07T20:09:42.478Z,28.97
2018-12-07T20:12:15.742Z,39.87
2018-12-07T20:14:45.732Z,31.33
2018-12-07T20:17:19.092Z,34.10
2018-12-07T20:19:49.407Z,32.13
2018-12-07T20:22:21.557Z,32.70
2018-12-07T20:24:52.560Z,34.50
2018-12-07T20:27:23.961Z,35.37
2018-12-07T20:29:58.150Z,34.03
2018-12-07T20:32:28.916Z,35.60
2018-12-07T20:35:00.178Z,37.93
2018-12-07T20:40:09.413Z,43.47
2018-12-07T20:42:39.378Z,42.27
2018-12-07T20:45:10.935Z,44.13
2018-12-07T20:47:44.391Z,43.83
2018-12-07T20:50:18.182Z,38.63
2018-12-07T20:52:49.935Z,45.10
2018-12-07T20:55:22.999Z,47.13
2018-12-07T20:57:54.138Z,51.57
2018-12-07T21:00:24.113Z,47.77
2018-12-07T21:02:59.200Z,47.37
2018-12-07T21:08:56.992Z,49.87
2018-12-07T21:11:39.842Z,58.63
2018-12-07T21:14:23.015Z,60.20
2018-12-07T21:20:04.836Z,71.97
2018-12-07T21:22:38.029Z,77.37
2018-12-07T21:25:08.302Z,78.00
2018-12-07T21:27:41.691Z,76.60
2018-12-07T21:33:09.064Z,97.13
2018-12-07T21:35:54.753Z,119.80
2018-12-07T21:38:25.256Z,125.97
2018-12-07T21:40:56.422Z,135.83
2018-12-07T21:43:26.683Z,138.97
2018-12-07T21:45:56.842Z,137.33
2018-12-07T21:48:30.430Z,140.07
2018-12-07T21:51:13.960Z,160.33
2018-12-07T21:53:44.221Z,174.87
2018-12-07T21:56:15.851Z,166.33
2018-12-07T21:58:49.369Z,175.83
2018-12-07T22:01:19.818Z,234.77
2018-12-07T22:03:49.991Z,199.27
2018-12-07T22:06:20.095Z,194.10
2018-12-07T22:08:50.612Z,205.57
2018-12-07T22:11:21.081Z,188.70
2018-12-07T22:13:51.010Z,155.00
2018-12-07T22:16:21.302Z,155.27
2018-12-07T22:18:51.544Z,196.53
2018-12-07T22:21:21.953Z,212.23
2018-12-07T22:23:52.064Z,453.23
2018-12-07T22:26:22.079Z,338.40
2018-12-07T22:28:52.407Z,298.47
2018-12-07T22:31:22.545Z,358.17
2018-12-07T22:33:52.808Z,224.33
2018-12-07T22:36:23.029Z,257.20
2018-12-07T22:38:53.222Z,271.43
2018-12-07T22:41:23.209Z,217.37
2018-12-07T22:44:00.141Z,212.50
2018-12-07T22:46:30.121Z,198.20
2018-12-07T22:49:00.232Z,181.20
2018-12-07T22:51:30.841Z,163.10
2018-12-07T22:54:00.848Z,165.77
2018-12-07T22:56:30.858Z,168.67
2018-12-07T22:59:00.882Z,206.40
2018-12-07T23:01:31.008Z,142.67
2018-12-07T23:04:00.925Z,142.60
2018-12-07T23:06:30.893Z,129.97
2018-12-07T23:09:00.857Z,133.83
2018-12-07T23:11:30.872Z,144.63
2018-12-07T23:14:00.901Z,124.87
2018-12-07T23:16:31.061Z,117.13
2018-12-07T23:19:07.667Z,107.60
2018-12-07T23:21:37.779Z,104.00
2018-12-07T23:24:07.831Z,101.43
2018-12-07T23:26:37.918Z,98.73
2018-12-07T23:31:59.869Z,98.47
2018-12-07T23:34:29.875Z,83.07
2018-12-07T23:36:59.887Z,87.77
2018-12-07T23:39:29.838Z,72.33
2018-12-07T23:41:59.918Z,67.80
2018-12-07T23:44:29.931Z,66.53
2018-12-07T23:47:00.317Z,54.70
2018-12-07T23:49:30.378Z,48.30
2018-12-07T23:52:00.355Z,46.77
2018-12-07T23:54:30.420Z,42.70
2018-12-07T23:57:00.528Z,39.07
2018-12-07T23:59:30.457Z,39.63
